createdAt,value
2022-09-25T00:01:09.644Z,27.50
2022-09-25T00:06:21.750Z,27.20
2022-09-25T00:11:30.737Z,29.80
2022-09-25T00:16:34.299Z,29.50
2022-09-25T00:21:37.812Z,29.50
2022-09-25T00:26:43.152Z,30.80
2022-09-25T00:31:46.100Z,31.20
2022-09-25T00:36:49.143Z,32.70
2022-09-25T00:41:52.306Z,31.90
2022-09-25T00:46:54.593Z,31.10
2022-09-25T00:52:03.013Z,29.00
2022-09-25T00:57:10.560Z,30.00
2022-09-25T01:02:26.823Z,27.50
2022-09-25T01:07:29.228Z,24.80
2022-09-25T01:12:31.897Z,30.30
2022-09-25T01:18:03.482Z,26.10
2022-09-25T01:23:37.142Z,28.20
2022-09-25T01:29:07.175Z,28.20
2022-09-25T01:34:41.073Z,28.50
2022-09-25T01:39:57.011Z,25.70
2022-09-25T01:45:06.542Z,29.00
2022-09-25T01:50:18.388Z,26.20
2022-09-25T01:55:36.651Z,25.60
2022-09-25T02:05:49.907Z,23.80
2022-09-25T02:11:00.579Z,23.80
2022-09-25T02:16:10.763Z,23.30
2022-09-25T02:21:31.436Z,23.70
2022-09-25T02:26:35.427Z,23.00
2022-09-25T02:31:50.399Z,23.40
2022-09-25T02:36:52.923Z,23.60
2022-09-25T02:42:11.108Z,21.40
2022-09-25T02:47:25.128Z,20.80
2022-09-25T02:53:05.740Z,24.10
2022-09-25T02:58:22.466Z,20.90
2022-09-25T03:03:26.540Z,18.50
2022-09-25T03:08:38.569Z,22.50
2022-09-25T03:13:42.804Z,20.20
2022-09-25T03:18:47.688Z,23.60
2022-09-25T03:23:50.835Z,21.40
2022-09-25T03:28:54.433Z,19.60
2022-09-25T03:33:58.016Z,18.40
2022-09-25T03:39:01.270Z,19.10
2022-09-25T03:44:04.000Z,22.60
2022-09-25T03:49:10.502Z,22.40
2022-09-25T03:54:13.967Z,20.50
2022-09-25T03:59:16.828Z,19.50
2022-09-25T04:04:19.456Z,18.10
2022-09-25T04:09:23.141Z,21.60
2022-09-25T04:14:26.992Z,20.30
2022-09-25T04:19:30.128Z,20.80
2022-09-25T04:24:51.094Z,19.90
2022-09-25T04:29:53.244Z,21.00
2022-09-25T04:34:56.226Z,20.40
2022-09-25T04:39:58.589Z,20.70
2022-09-25T04:45:01.560Z,21.40
2022-09-25T04:50:04.376Z,19.60
2022-09-25T04:55:06.781Z,20.40
2022-09-25T05:00:10.085Z,18.80
2022-09-25T05:05:14.296Z,20.70
2022-09-25T05:10:16.678Z,22.60
2022-09-25T05:15:20.931Z,21.70
2022-09-25T05:20:24.338Z,22.40
2022-09-25T05:25:27.603Z,20.70
2022-09-25T05:30:32.828Z,21.20
2022-09-25T05:35:35.193Z,19.80
2022-09-25T05:40:41.302Z,21.30
2022-09-25T05:45:54.413Z,20.20
2022-09-25T05:50:57.607Z,22.90
2022-09-25T05:56:01.633Z,22.80
2022-09-25T06:01:06.000Z,21.60
2022-09-25T06:06:07.934Z,21.00
2022-09-25T06:11:10.996Z,20.90
2022-09-25T06:16:19.846Z,24.10
2022-09-25T06:21:22.323Z,23.80
2022-09-25T06:26:25.603Z,24.70
2022-09-25T06:31:27.377Z,24.90
2022-09-25T06:36:29.830Z,29.00
2022-09-25T06:41:32.419Z,30.70
2022-09-25T06:46:35.047Z,26.00
2022-09-25T06:51:38.931Z,27.50
2022-09-25T06:56:42.397Z,25.90
2022-09-25T07:01:44.943Z,22.10
2022-09-25T07:06:47.554Z,19.10
2022-09-25T07:11:54.306Z,21.40
2022-09-25T07:22:01.953Z,18.70
2022-09-25T07:27:05.118Z,21.20
2022-09-25T07:32:08.433Z,19.60
2022-09-25T07:37:11.993Z,18.40
2022-09-25T07:42:16.454Z,18.50
2022-09-25T07:47:19.468Z,19.90
2022-09-25T07:52:21.814Z,18.50
2022-09-25T07:57:27.336Z,21.60
2022-09-25T08:02:35.437Z,18.30
2022-09-25T08:07:38.199Z,19.80
2022-09-25T08:12:44.512Z,19.90
2022-09-25T08:17:46.568Z,22.30
2022-09-25T08:22:53.202Z,20.70
2022-09-25T08:27:56.004Z,18.80
2022-09-25T08:33:01.425Z,19.30
2022-09-25T08:38:04.911Z,14.00
2022-09-25T08:43:15.147Z,18.70
2022-09-25T08:48:42.317Z,18.30
2022-09-25T08:53:45.869Z,15.30
2022-09-25T08:59:04.489Z,13.40
2022-09-25T09:04:29.060Z,14.10
2022-09-25T09:09:46.510Z,13.80
2022-09-25T09:14:51.957Z,10.60
2022-09-25T09:20:15.768Z,11.00
2022-09-25T09:25:36.975Z,9.50
2022-09-25T09:30:57.981Z,9.80
2022-09-25T09:36:38.483Z,9.20
2022-09-25T09:41:56.253Z,8.00
2022-09-25T09:47:39.856Z,9.30
2022-09-25T09:52:48.888Z,7.30
2022-09-25T09:58:11.277Z,8.70
2022-09-25T10:03:25.326Z,8.40
2022-09-25T10:08:29.700Z,7.30
2022-09-25T10:13:41.027Z,8.20
2022-09-25T10:19:04.079Z,8.50
2022-09-25T10:24:07.403Z,8.00
2022-09-25T10:29:11.151Z,9.60
2022-09-25T10:34:16.531Z,8.40
2022-09-25T10:39:44.031Z,7.30
2022-09-25T10:44:52.909Z,6.30
2022-09-25T10:50:13.435Z,8.50
2022-09-25T10:55:31.995Z,6.90
2022-09-25T11:00:52.820Z,7.80
2022-09-25T11:05:59.047Z,7.10
2022-09-25T11:11:05.511Z,7.40
2022-09-25T11:16:10.129Z,6.80
2022-09-25T11:21:24.566Z,8.40
2022-09-25T11:26:34.151Z,7.30
2022-09-25T11:31:42.132Z,7.80
2022-09-25T11:37:02.270Z,7.20
2022-09-25T11:42:14.447Z,5.80
2022-09-25T11:47:25.065Z,8.20
2022-09-25T11:52:40.898Z,6.10
2022-09-25T11:58:01.174Z,6.00
2022-09-25T12:03:15.363Z,5.00
2022-09-25T12:08:42.060Z,3.80
2022-09-25T12:14:18.908Z,5.00
2022-09-25T12:19:45.715Z,5.50
2022-09-25T12:25:04.235Z,3.60
2022-09-25T12:30:21.166Z,4.80
2022-09-25T12:35:52.143Z,3.80
2022-09-25T12:41:12.614Z,4.00
2022-09-25T12:46:42.722Z,3.40
2022-09-25T12:51:51.016Z,3.90
2022-09-25T12:57:13.201Z,3.70
2022-09-25T13:02:15.688Z,4.70
2022-09-25T13:07:51.719Z,3.80
2022-09-25T13:12:57.541Z,4.10
2022-09-25T13:17:59.981Z,4.10
2022-09-25T13:23:15.105Z,4.00
2022-09-25T13:28:25.875Z,4.50
2022-09-25T13:33:46.768Z,4.20
2022-09-25T13:39:24.023Z,3.60
2022-09-25T13:49:55.719Z,3.80
2022-09-25T13:55:22.098Z,4.10
2022-09-25T14:00:34.184Z,4.50
2022-09-25T14:05:37.421Z,4.50
2022-09-25T14:10:53.275Z,3.30
2022-09-25T14:16:00.905Z,4.70
2022-09-25T14:21:07.735Z,4.40
2022-09-25T14:26:43.159Z,4.60
2022-09-25T14:31:51.218Z,4.50
2022-09-25T14:37:16.398Z,5.40
2022-09-25T14:42:54.173Z,4.50
2022-09-25T14:47:59.645Z,4.50
2022-09-25T14:53:08.437Z,4.50
2022-09-25T14:58:16.032Z,5.90
2022-09-25T15:03:21.469Z,5.50
2022-09-25T15:08:42.696Z,5.80
2022-09-25T15:13:45.887Z,5.90
2022-09-25T15:18:59.510Z,4.80
2022-09-25T15:24:07.335Z,4.90
2022-09-25T15:29:21.279Z,5.10
2022-09-25T15:34:30.350Z,4.20
2022-09-25T15:39:41.438Z,4.90
2022-09-25T15:44:55.504Z,5.60
2022-09-25T15:50:27.542Z,4.20
2022-09-25T15:55:38.925Z,4.40
2022-09-25T16:01:21.118Z,4.60
2022-09-25T16:06:24.268Z,4.90
2022-09-25T16:11:26.947Z,4.70
2022-09-25T16:16:31.553Z,4.50
2022-09-25T16:21:40.225Z,3.90
2022-09-25T16:26:45.808Z,4.50
2022-09-25T16:31:53.244Z,3.90
2022-09-25T16:37:02.946Z,4.60
2022-09-25T16:42:27.380Z,4.30
2022-09-25T16:47:31.429Z,3.80
2022-09-25T16:52:35.249Z,3.90
2022-09-25T16:57:41.252Z,3.60
2022-09-25T17:02:48.092Z,3.50
2022-09-25T17:07:52.953Z,3.10
2022-09-25T17:12:59.555Z,4.10
2022-09-25T17:18:07.279Z,4.00
2022-09-25T17:23:11.162Z,5.30
2022-09-25T17:28:15.540Z,7.70
2022-09-25T17:33:21.250Z,6.10
2022-09-25T17:38:24.111Z,6.20
2022-09-25T17:43:28.098Z,5.50
2022-09-25T17:48:32.068Z,5.40
2022-09-25T17:53:36.020Z,5.30
2022-09-25T17:58:39.655Z,5.40
2022-09-25T18:03:42.724Z,5.80
2022-09-25T18:08:49.746Z,7.00
2022-09-25T18:14:03.943Z,8.10
2022-09-25T18:19:48.776Z,8.10
2022-09-25T18:24:57.345Z,8.00
2022-09-25T18:30:00.940Z,8.00
2022-09-25T18:35:09.026Z,7.40
2022-09-25T18:40:14.083Z,6.80
2022-09-25T18:45:19.829Z,7.80
2022-09-25T18:50:21.644Z,6.70
2022-09-25T18:55:23.593Z,7.80
2022-09-25T19:00:25.615Z,6.20
2022-09-25T19:05:29.171Z,7.90
2022-09-25T19:10:34.193Z,9.00
2022-09-25T19:15:37.633Z,8.10
2022-09-25T19:20:54.764Z,13.90
2022-09-25T19:26:03.009Z,13.30
2022-09-25T19:31:14.740Z,17.20
2022-09-25T19:36:27.400Z,18.40
2022-09-25T19:41:35.769Z,15.80
2022-09-25T19:46:40.023Z,17.80
2022-09-25T19:51:43.134Z,17.80
2022-09-25T19:56:46.062Z,15.40
2022-09-25T20:01:48.542Z,20.60
2022-09-25T20:06:54.875Z,19.20
2022-09-25T20:11:57.381Z,20.40
2022-09-25T20:17:00.095Z,19.90
2022-09-25T20:22:03.638Z,22.40
2022-09-25T20:27:08.191Z,16.00
2022-09-25T20:32:11.934Z,16.50
2022-09-25T20:37:15.741Z,21.40
2022-09-25T20:42:19.226Z,17.80
2022-09-25T20:47:23.069Z,21.60
2022-09-25T20:52:25.993Z,21.60
2022-09-25T20:57:33.185Z,23.90
2022-09-25T21:02:35.587Z,21.80
2022-09-25T21:07:38.183Z,23.00
2022-09-25T21:12:41.330Z,22.20
2022-09-25T21:17:45.509Z,25.00
2022-09-25T21:22:48.753Z,26.00
2022-09-25T21:27:52.024Z,27.40
2022-09-25T21:32:55.171Z,26.50
2022-09-25T21:37:58.872Z,26.50
2022-09-25T21:43:03.582Z,24.50
2022-09-25T21:48:08.903Z,29.40
2022-09-25T21:53:13.911Z,26.80
2022-09-25T21:58:17.434Z,25.90
2022-09-25T22:03:20.804Z,24.80
2022-09-25T22:08:24.802Z,28.70
2022-09-25T22:13:31.848Z,27.80
2022-09-25T22:19:02.416Z,30.30
2022-09-25T22:24:06.679Z,31.10
2022-09-25T22:29:10.008Z,30.70
2022-09-25T22:34:25.047Z,33.20
2022-09-25T22:39:28.747Z,30.00
2022-09-25T22:44:31.743Z,31.50
2022-09-25T22:49:35.316Z,33.90
2022-09-25T22:54:38.126Z,33.30
2022-09-25T22:59:41.161Z,30.50
2022-09-25T23:04:46.008Z,34.10
2022-09-25T23:09:48.667Z,29.70
2022-09-25T23:14:51.203Z,29.30
2022-09-25T23:19:53.848Z,35.60
2022-09-25T23:24:57.100Z,32.90
2022-09-25T23:30:00.516Z,33.00
2022-09-25T23:35:03.844Z,31.30
2022-09-25T23:40:08.720Z,31.10
2022-09-25T23:50:16.169Z,31.10
2022-09-25T23:55:19.042Z,33.50
